IPG2015 KSAN-KLAX
Flight info
| Callsign | IPG2015 |
|---|---|
| Flight time | N/A |
| Altitude | 10000 |
| Route | CWARD2 SLI |
| Aircraft | SF34/M-SDFGR/S |
Departure
| Time | 2026-05-06 05:36 |
|---|---|
| Airport | San Diego International Airport (KSAN) |
Arrival
| Time | N/A |
|---|---|
| Airport | Los Angeles International Airport (KLAX) |
| Time | Latitude | Longitude | Altitude | Speed | Heading |
|---|---|---|---|---|---|
| 2026-05-06 05:11 | 32.73333 | -117.19900 | 21 ft | 0 kts | 116° |
| 2026-05-06 05:14 | 32.73333 | -117.19901 | 21 ft | 2 kts | 116° |
| 2026-05-06 05:15 | 32.73341 | -117.19920 | 21 ft | 3 kts | 116° |
| 2026-05-06 05:15 | 32.73349 | -117.19939 | 25 ft | 3 kts | 116° |
| 2026-05-06 05:15 | 32.73357 | -117.19958 | 23 ft | 3 kts | 116° |
| 2026-05-06 05:15 | 32.73363 | -117.19973 | 24 ft | 0 kts | 116° |
| 2026-05-06 05:19 | 32.73362 | -117.19970 | 24 ft | 0 kts | 114° |
| 2026-05-06 05:19 | 32.73359 | -117.19962 | 23 ft | 0 kts | 109° |
| 2026-05-06 05:20 | 32.73359 | -117.19959 | 23 ft | 2 kts | 88° |
| 2026-05-06 05:21 | 32.73386 | -117.19967 | 22 ft | 11 kts | 342° |
| 2026-05-06 05:21 | 32.73459 | -117.19951 | 22 ft | 9 kts | 27° |
| 2026-05-06 05:21 | 32.73464 | -117.19833 | 23 ft | 21 kts | 107° |
| 2026-05-06 05:21 | 32.73430 | -117.19695 | 23 ft | 15 kts | 107° |
| 2026-05-06 05:22 | 32.73406 | -117.19593 | 22 ft | 11 kts | 106° |
| 2026-05-06 05:22 | 32.73375 | -117.19468 | 23 ft | 22 kts | 101° |
| 2026-05-06 05:22 | 32.73321 | -117.19237 | 19 ft | 28 kts | 107° |
| 2026-05-06 05:22 | 32.73276 | -117.19057 | 22 ft | 21 kts | 105° |
| 2026-05-06 05:23 | 32.73237 | -117.18894 | 23 ft | 27 kts | 105° |
| 2026-05-06 05:23 | 32.73171 | -117.18626 | 30 ft | 37 kts | 106° |
| 2026-05-06 05:23 | 32.73070 | -117.18212 | 26 ft | 29 kts | 104° |
| 2026-05-06 05:24 | 32.73024 | -117.18041 | 24 ft | 20 kts | 107° |
| 2026-05-06 05:24 | 32.72993 | -117.17899 | 23 ft | 8 kts | 102° |
| 2026-05-06 05:24 | 32.72964 | -117.17786 | 23 ft | 23 kts | 108° |
| 2026-05-06 05:24 | 32.72954 | -117.17680 | 23 ft | 1 kts | 72° |
| 2026-05-06 05:26 | 32.72962 | -117.17665 | 25 ft | 7 kts | 49° |
| 2026-05-06 05:27 | 32.73033 | -117.17643 | 24 ft | 17 kts | 295° |
| 2026-05-06 05:27 | 32.73082 | -117.17846 | 24 ft | 33 kts | 287° |
| 2026-05-06 05:27 | 32.73124 | -117.18012 | 22 ft | 0 kts | 287° |
| 2026-05-06 05:28 | 32.73125 | -117.18016 | 22 ft | 4 kts | 287° |
| 2026-05-06 05:29 | 32.73127 | -117.18025 | 22 ft | 0 kts | 287° |
| 2026-05-06 05:29 | 32.73128 | -117.18028 | 22 ft | 0 kts | 284° |
| 2026-05-06 05:30 | 32.73139 | -117.18035 | 21 ft | 5 kts | 333° |
| 2026-05-06 05:30 | 32.73177 | -117.18170 | 26 ft | 19 kts | 300° |
| 2026-05-06 05:30 | 32.73257 | -117.18187 | 25 ft | 0 kts | 32° |
| 2026-05-06 05:31 | 32.73271 | -117.18156 | 25 ft | 12 kts | 82° |
| 2026-05-06 05:31 | 32.73235 | -117.17991 | 25 ft | 27 kts | 105° |
| 2026-05-06 05:31 | 32.73197 | -117.17827 | 27 ft | 17 kts | 106° |
| 2026-05-06 05:32 | 32.73171 | -117.17722 | 28 ft | 12 kts | 106° |
| 2026-05-06 05:32 | 32.73133 | -117.17587 | 26 ft | 15 kts | 124° |
| 2026-05-06 05:32 | 32.73110 | -117.17562 | 25 ft | 0 kts | 145° |
| 2026-05-06 05:34 | 32.73109 | -117.17562 | 25 ft | 0 kts | 144° |
| 2026-05-06 05:34 | 32.73109 | -117.17561 | 25 ft | 1 kts | 144° |
| 2026-05-06 05:35 | 32.73017 | -117.17552 | 26 ft | 25 kts | 234° |
| 2026-05-06 05:35 | 32.73069 | -117.17804 | 23 ft | 39 kts | 286° |
| 2026-05-06 05:35 | 32.73127 | -117.18032 | 22 ft | 47 kts | 288° |
| 2026-05-06 05:35 | 32.73265 | -117.18606 | 29 ft | 113 kts | 285° |
| 2026-05-06 05:36 | 32.73537 | -117.19741 | 237 ft | 167 kts | 288° |
| 2026-05-06 05:36 | 32.73964 | -117.21173 | 765 ft | 195 kts | 290° |
| 2026-05-06 05:36 | 32.74590 | -117.22618 | 1540 ft | 203 kts | 301° |
| 2026-05-06 05:36 | 32.75384 | -117.24022 | 2340 ft | 207 kts | 307° |
| 2026-05-06 05:37 | 32.76267 | -117.25365 | 3150 ft | 211 kts | 307° |
| 2026-05-06 05:37 | 32.77214 | -117.26803 | 3599 ft | 224 kts | 309° |
| 2026-05-06 05:37 | 32.78137 | -117.28207 | 4707 ft | 202 kts | 309° |
| 2026-05-06 05:37 | 32.79000 | -117.29430 | 5971 ft | 191 kts | 314° |
| 2026-05-06 05:38 | 32.79921 | -117.30627 | 6750 ft | 203 kts | 311° |
| 2026-05-06 05:38 | 32.80759 | -117.31993 | 7618 ft | 204 kts | 308° |
| 2026-05-06 05:38 | 32.81574 | -117.33361 | 8604 ft | 203 kts | 307° |